Time;durP1;ratioP1;P1;durP2;ratioP2;P2;SDS_P1;SDS_P2;PMS_P1;PMS_P2;Temp;Humidity;BMP_temperature;BMP_pressure;BME280_temperature;BME280_humidity;BME280_pressure;Samples;Min_cycle;Max_cycle;Signal;HPM_P1;HPM_P2
2021/06/17 00:00:49;;;;;;;13.63;11.07;;;;;;;24.77;48.24;100900.25;4996115;28;113261;-66
2021/06/17 00:03:16;;;;;;;17.38;12.48;;;;;;;24.75;48.32;100903.16;5018745;27;124923;-65
2021/06/17 00:05:45;;;;;;;15.88;11.63;;;;;;;24.73;48.27;100910.56;5015796;27;124499;-65
2021/06/17 00:08:13;;;;;;;15.90;12.07;;;;;;;24.68;48.17;100913.78;5017178;27;114384;-66
2021/06/17 00:10:43;;;;;;;18.45;12.27;;;;;;;24.66;48.35;100914.94;5023973;27;114084;-65
2021/06/17 00:13:14;;;;;;;15.85;12.50;;;;;;;24.60;48.51;100916.44;5022338;27;124082;-65
2021/06/17 00:15:44;;;;;;;17.05;13.30;;;;;;;24.58;48.46;100909.47;5027532;27;123771;-65
2021/06/17 00:18:13;;;;;;;15.18;12.55;;;;;;;24.56;48.49;100909.63;5006564;28;114302;-66
2021/06/17 00:20:41;;;;;;;14.60;12.73;;;;;;;24.52;48.61;100908.25;5021961;27;115343;-65
2021/06/17 00:23:09;;;;;;;18.52;13.20;;;;;;;24.50;48.82;100912.94;5020181;27;124857;-65
2021/06/17 00:25:39;;;;;;;13.80;11.80;;;;;;;24.48;48.83;100904.13;5025444;27;124127;-65
2021/06/17 00:28:06;;;;;;;15.30;12.30;;;;;;;24.45;48.80;100907.16;5030535;27;115009;-65
2021/06/17 00:30:34;;;;;;;16.00;12.70;;;;;;;24.43;48.83;100907.31;5027375;27;114054;-65
2021/06/17 00:33:01;;;;;;;16.95;12.65;;;;;;;24.41;48.64;100905.75;5022751;27;124035;-65
2021/06/17 00:35:29;;;;;;;15.15;13.05;;;;;;;24.37;48.75;100909.78;5027711;27;123928;-65
2021/06/17 00:37:58;;;;;;;16.20;11.93;;;;;;;24.31;48.74;100905.84;5022319;27;114618;-65
2021/06/17 00:40:25;;;;;;;14.38;11.63;;;;;;;24.27;48.67;100905.31;5028239;27;113877;-65
2021/06/17 00:42:54;;;;;;;15.43;12.15;;;;;;;24.23;48.96;100898.53;5022226;27;124477;-64
2021/06/17 00:45:34;;;;;;;21.42;12.00;;;;;;;24.19;48.99;100897.16;5009102;28;123535;-64
2021/06/17 00:48:03;;;;;;;16.92;12.98;;;;;;;24.15;49.03;100895.75;5004179;28;113140;-64
2021/06/17 00:50:34;;;;;;;19.02;13.15;;;;;;;24.10;49.04;100892.66;5019231;27;114247;-65
2021/06/17 00:53:02;;;;;;;16.67;13.48;;;;;;;24.07;49.11;100898.38;5020874;27;124091;-64
2021/06/17 00:55:29;;;;;;;19.33;13.75;;;;;;;24.00;49.15;100900.03;5006018;28;122879;-64
2021/06/17 00:57:56;;;;;;;18.25;13.25;;;;;;;23.95;49.38;100889.66;5018522;27;114591;-64
2021/06/17 01:00:23;;;;;;;20.08;13.10;;;;;;;23.92;49.50;100889.13;5019323;27;113921;-64
2021/06/17 01:02:50;;;;;;;16.75;12.65;;;;;;;23.88;49.40;100883.16;5006073;28;124671;-64
2021/06/17 01:05:20;;;;;;;15.60;13.15;;;;;;;23.84;49.46;100876.38;4999907;28;124735;-64
2021/06/17 01:07:57;;;;;;;16.65;12.88;;;;;;;23.82;49.60;100878.38;5023657;27;116614;-64
2021/06/17 01:10:27;;;;;;;15.52;12.52;;;;;;;23.79;49.63;100879.56;4997915;27;115766;-64
2021/06/17 01:13:06;;;;;;;20.25;12.32;;;;;;;23.77;49.65;100876.13;5018615;27;124525;-64
2021/06/17 01:16:04;;;;;;;17.67;12.93;;;;;;;23.75;49.76;100867.28;5020905;27;122781;-64
2021/06/17 01:18:32;;;;;;;15.25;12.50;;;;;;;23.74;49.70;100871.00;5025416;27;114404;-64
2021/06/17 01:21:07;;;;;;;13.77;11.68;;;;;;;23.70;50.03;100867.75;5024958;27;114133;-64
2021/06/17 01:24:22;;;;;;;18.15;13.30;;;;;;;23.67;49.98;100864.50;5006922;27;123048;-64
2021/06/17 01:27:08;;;;;;;15.57;12.10;;;;;;;23.65;49.86;100866.53;5022337;27;124237;-64
2021/06/17 01:29:40;;;;;;;16.45;11.88;;;;;;;23.62;50.03;100869.53;5020451;27;115005;-64
2021/06/17 01:32:09;;;;;;;17.05;11.35;;;;;;;23.59;50.02;100867.16;5027138;27;114480;-64
2021/06/17 01:34:39;;;;;;;14.75;11.50;;;;;;;23.57;50.10;100874.56;5002835;28;123471;-64
2021/06/17 01:37:11;;;;;;;17.52;12.82;;;;;;;23.54;50.18;100875.69;5017448;28;124210;-64
2021/06/17 01:39:40;;;;;;;16.17;13.02;;;;;;;23.50;50.56;100879.72;5025137;27;114626;-64
2021/06/17 01:42:09;;;;;;;15.98;12.52;;;;;;;23.47;50.40;100875.47;5019722;27;114175;-64
2021/06/17 01:44:37;;;;;;;15.20;11.80;;;;;;;23.47;50.63;100880.88;5025918;27;125479;-64
2021/06/17 01:47:06;;;;;;;15.13;12.02;;;;;;;23.44;50.62;100875.78;5023097;27;124261;-64
2021/06/17 01:49:38;;;;;;;14.77;11.52;;;;;;;23.42;50.62;100877.78;5026345;27;114566;-64
2021/06/17 01:52:05;;;;;;;15.02;12.45;;;;;;;23.40;50.56;100879.78;5026438;22;114400;-71
2021/06/17 01:54:37;;;;;;;17.33;12.27;;;;;;;23.40;50.75;100885.19;5027431;27;124053;-72
2021/06/17 01:57:04;;;;;;;16.60;12.57;;;;;;;23.38;50.65;100881.78;4997395;27;123281;-72
2021/06/17 01:59:32;;;;;;;17.38;12.63;;;;;;;23.37;50.62;100879.25;5017884;27;115328;-72
2021/06/17 02:02:01;;;;;;;17.80;13.00;;;;;;;23.36;50.85;100878.41;5020430;27;114812;-72
2021/06/17 02:04:29;;;;;;;15.13;11.80;;;;;;;23.33;50.72;100879.53;5007703;28;124080;-72
2021/06/17 02:06:59;;;;;;;16.20;11.57;;;;;;;23.34;50.85;100869.59;5009669;28;123102;-73
2021/06/17 02:09:28;;;;;;;15.23;12.63;;;;;;;23.33;50.87;100879.53;5007866;28;114641;-74
2021/06/17 02:11:56;;;;;;;15.85;12.32;;;;;;;23.32;50.87;100877.00;5023327;27;113527;-74
2021/06/17 02:14:25;;;;;;;16.15;12.30;;;;;;;23.31;51.03;100875.28;5020007;27;123780;-74
2021/06/17 02:16:55;;;;;;;20.90;11.85;;;;;;;23.29;50.89;100877.28;5028445;27;123722;-73
2021/06/17 02:19:26;;;;;;;18.48;12.13;;;;;;;23.29;50.94;100877.28;5008049;28;113629;-74
2021/06/17 02:21:57;;;;;;;14.32;11.98;;;;;;;23.26;51.05;100878.47;5026292;27;113538;-74
2021/06/17 02:24:26;;;;;;;20.48;11.98;;;;;;;23.25;51.22;100873.19;5001413;28;124218;-74
2021/06/17 02:26:58;;;;;;;16.15;12.23;;;;;;;23.23;51.31;100872.50;4993794;27;123032;-74
2021/06/17 02:29:26;;;;;;;14.88;11.52;;;;;;;23.23;51.38;100869.81;5025204;27;114401;-74
2021/06/17 02:31:55;;;;;;;15.48;12.52;;;;;;;23.24;51.39;100876.88;5025629;27;114336;-74
2021/06/17 02:34:24;;;;;;;15.10;11.60;;;;;;;23.24;51.24;100879.59;5005015;27;123308;-74
2021/06/17 02:36:52;;;;;;;15.55;11.80;;;;;;;23.24;51.36;100879.59;5025959;27;124616;-74
2021/06/17 02:39:24;;;;;;;18.65;12.60;;;;;;;23.23;51.52;100869.81;5023908;27;115260;-74
2021/06/17 02:41:55;;;;;;;16.35;13.45;;;;;;;23.23;51.66;100869.81;5018958;27;114218;-74
2021/06/17 02:44:24;;;;;;;17.65;12.43;;;;;;;23.25;51.53;100870.50;5014156;27;123900;-74
2021/06/17 02:46:52;;;;;;;17.63;12.82;;;;;;;23.25;51.63;100867.78;5010233;28;123991;-74
2021/06/17 02:49:20;;;;;;;16.08;12.73;;;;;;;23.26;51.65;100861.38;4999380;27;115821;-74
2021/06/17 02:51:47;;;;;;;16.45;12.90;;;;;;;23.28;51.48;100859.38;4997518;28;113926;-75
2021/06/17 02:54:20;;;;;;;17.67;13.52;;;;;;;23.28;51.60;100852.13;5025624;27;124766;-74
2021/06/17 02:57:15;;;;;;;18.58;12.82;;;;;;;23.29;51.60;100850.28;4996990;28;124220;-74
2021/06/17 02:59:55;;;;;;;19.00;13.40;;;;;;;23.30;51.58;100854.66;5021419;27;115065;-74
2021/06/17 03:02:34;;;;;;;18.20;13.68;;;;;;;23.30;51.47;100851.94;5022407;27;113865;-74
2021/06/17 03:05:08;;;;;;;19.70;14.25;;;;;;;23.31;51.56;100848.25;5010223;28;123528;-74
2021/06/17 03:07:41;;;;;;;18.07;14.00;;;;;;;23.31;51.58;100853.66;5021072;27;123801;-74
2021/06/17 03:10:10;;;;;;;19.90;14.07;;;;;;;23.32;51.69;100855.38;5002608;28;113572;-75
2021/06/17 03:12:42;;;;;;;20.33;13.57;;;;;;;23.33;51.77;100854.38;5018760;27;114261;-74
2021/06/17 03:15:10;;;;;;;15.43;12.93;;;;;;;23.35;51.86;100854.22;4990546;28;123360;-74
2021/06/17 03:17:45;;;;;;;19.55;13.32;;;;;;;23.35;51.72;100855.06;5019216;27;124135;-74
2021/06/17 03:20:14;;;;;;;17.60;14.13;;;;;;;23.37;51.79;100853.06;5016380;27;114995;-74
2021/06/17 03:22:46;;;;;;;19.42;13.95;;;;;;;23.39;51.89;100856.44;5026808;27;113835;-75
2021/06/17 03:25:17;;;;;;;20.50;14.05;;;;;;;23.41;52.03;100859.84;5004024;28;124493;-74
2021/06/17 03:27:50;;;;;;;19.42;13.88;;;;;;;23.42;51.87;100861.56;5008607;27;123402;-74
2021/06/17 03:30:21;;;;;;;18.15;13.75;;;;;;;23.42;51.88;100856.16;5021165;27;114784;-75
2021/06/17 03:32:49;;;;;;;17.20;13.73;;;;;;;23.42;51.83;100849.91;5003883;27;113493;-74
2021/06/17 03:35:18;;;;;;;19.55;13.77;;;;;;;23.42;51.97;100839.94;4982613;28;123263;-74
2021/06/17 03:37:50;;;;;;;18.00;14.05;;;;;;;23.42;52.17;100845.34;5023898;27;123711;-74
2021/06/17 03:40:21;;;;;;;19.80;15.27;;;;;;;23.42;52.34;100839.94;4999764;28;115349;-74
2021/06/17 03:42:51;;;;;;;18.90;14.82;;;;;;;23.44;52.37;100840.63;5017646;27;115966;-74
2021/06/17 03:45:20;;;;;;;18.27;14.50;;;;;;;23.44;52.37;100843.34;5002276;28;123816;-74
2021/06/17 03:47:48;;;;;;;20.42;15.10;;;;;;;23.46;52.49;100852.13;5020500;27;124579;-74
2021/06/17 03:50:18;;;;;;;21.33;15.35;;;;;;;23.47;52.59;100843.03;5022185;27;114298;-75
2021/06/17 03:52:46;;;;;;;19.75;14.90;;;;;;;23.50;52.70;100845.41;5017640;27;114061;-75
2021/06/17 03:55:19;;;;;;;21.08;15.00;;;;;;;23.54;52.70;100842.41;4999456;27;123902;-74
2021/06/17 03:57:48;;;;;;;19.85;15.00;;;;;;;23.59;52.72;100850.94;5017708;27;124684;-75
2021/06/17 04:00:16;;;;;;;20.80;15.45;;;;;;;23.63;52.76;100852.31;5023266;27;114577;-74
2021/06/17 04:02:44;;;;;;;22.63;15.95;;;;;;;23.67;52.97;100848.28;5024129;27;115263;-74
2021/06/17 04:05:13;;;;;;;23.20;16.33;;;;;;;23.72;52.95;100856.78;4998489;27;122041;-75
2021/06/17 04:07:44;;;;;;;19.73;15.32;;;;;;;23.76;52.95;100851.94;5002777;28;123822;-75
2021/06/17 04:10:16;;;;;;;22.20;16.83;;;;;;;23.79;53.24;100849.81;5018849;27;114396;-75
2021/06/17 04:12:44;;;;;;;20.02;16.40;;;;;;;23.83;53.34;100853.88;5019757;27;114123;-75
2021/06/17 04:15:11;;;;;;;21.70;16.85;;;;;;;23.89;53.24;100857.84;5006888;28;124546;-74
2021/06/17 04:17:41;;;;;;;20.30;16.55;;;;;;;23.94;53.41;100862.75;4980841;28;123184;-74
2021/06/17 04:20:16;;;;;;;23.88;16.77;;;;;;;23.98;53.51;100861.44;5008635;28;114013;-74
2021/06/17 04:22:45;;;;;;;;;;;;;;;24.02;52.66;100857.44;5021038;27;115256;-74
2021/06/17 04:25:13;;;;;;;21.98;16.73;;;;;;;24.10;52.96;100861.03;5020705;27;124412;-74
2021/06/17 04:27:42;;;;;;;22.83;17.05;;;;;;;24.14;53.25;100861.56;5019840;27;124144;-75
2021/06/17 04:30:10;;;;;;;24.05;17.67;;;;;;;24.22;53.34;100858.94;5026275;27;115569;-75
2021/06/17 04:32:40;;;;;;;22.00;16.67;;;;;;;24.27;53.67;100862.00;5009897;27;114560;-75
2021/06/17 04:35:09;;;;;;;21.23;17.08;;;;;;;24.34;53.65;100867.66;4995022;28;123967;-75
2021/06/17 04:37:37;;;;;;;23.55;16.95;;;;;;;24.42;53.54;100861.44;5023029;27;124594;-74
2021/06/17 04:40:05;;;;;;;19.95;15.77;;;;;;;24.49;53.71;100865.22;5026974;27;114536;-74
2021/06/17 04:42:33;;;;;;;20.58;15.95;;;;;;;24.60;53.57;100862.28;5021131;27;114015;-74
2021/06/17 04:45:00;;;;;;;19.65;15.57;;;;;;;24.68;53.55;100870.44;4995124;28;122558;-74
2021/06/17 04:47:27;;;;;;;18.95;15.20;;;;;;;24.78;53.46;100864.06;5020035;27;124593;-74
2021/06/17 04:49:55;;;;;;;19.67;14.88;;;;;;;24.87;53.55;100857.66;5020309;27;114397;-75
2021/06/17 04:52:36;;;;;;;19.95;15.27;;;;;;;24.99;53.49;100872.59;5024287;27;114208;-74
2021/06/17 04:55:03;;;;;;;18.63;13.77;;;;;;;25.11;53.30;100875.91;5018082;27;123817;-74
2021/06/17 04:57:30;;;;;;;17.95;13.73;;;;;;;25.22;53.02;100872.00;5023155;27;124140;-73
2021/06/17 04:59:58;;;;;;;16.17;12.70;;;;;;;25.31;52.80;100871.06;4975962;28;113355;-74
2021/06/17 05:02:25;;;;;;;15.45;12.45;;;;;;;25.40;52.80;100867.38;5015649;27;114020;-75
2021/06/17 05:04:52;;;;;;;16.52;12.10;;;;;;;25.50;52.39;100863.66;5018421;27;125686;-74
2021/06/17 05:12:31;;;;;;;13.85;10.75;;;;;;;25.78;51.82;100877.78;5021688;27;114522;-74
2021/06/17 05:14:59;;;;;;;14.75;10.40;;;;;;;25.86;51.80;100874.22;5000945;28;123989;-74
2021/06/17 05:17:26;;;;;;;15.05;10.88;;;;;;;25.94;51.31;100883.25;5021490;27;124697;-73
2021/06/17 05:19:53;;;;;;;14.60;10.15;;;;;;;26.02;51.45;100879.69;5018310;27;115599;-74
2021/06/17 05:22:20;;;;;;;13.82;10.40;;;;;;;26.11;51.33;100867.81;4995528;27;115654;-74
2021/06/17 05:24:47;;;;;;;11.80;9.45;;;;;;;26.21;50.95;100873.06;5004295;28;123331;-74
2021/06/17 05:27:14;;;;;;;12.48;9.77;;;;;;;26.29;50.75;100869.50;5021707;27;124652;-74
2021/06/17 05:29:41;;;;;;;11.35;9.23;;;;;;;26.37;50.29;100864.06;5021373;27;113983;-74
2021/06/17 05:32:08;;;;;;;11.32;8.85;;;;;;;26.42;50.14;100865.22;5018032;27;113693;-74
2021/06/17 05:34:35;;;;;;;14.50;9.25;;;;;;;26.46;50.18;100865.72;5013649;27;124801;-74
2021/06/17 05:37:05;;;;;;;12.70;9.43;;;;;;;26.53;50.07;100876.78;4998223;28;123595;-74
2021/06/17 05:39:32;;;;;;;11.65;9.65;;;;;;;26.58;49.89;100875.22;5013566;27;114348;-74
2021/06/17 05:41:59;;;;;;;11.77;9.40;;;;;;;26.62;49.76;100881.19;5001497;28;113468;-75
2021/06/17 05:44:26;;;;;;;12.38;9.55;;;;;;;26.65;49.58;100880.00;5017876;27;124250;-75
2021/06/17 05:46:53;;;;;;;13.50;9.50;;;;;;;26.66;49.64;100887.13;5022042;27;123973;-74
2021/06/17 05:49:23;;;;;;;12.65;9.85;;;;;;;26.66;49.34;100877.09;5021883;27;114111;-74
2021/06/17 05:51:51;;;;;;;10.90;9.05;;;;;;;26.68;49.24;100890.53;5006944;27;113797;-74
2021/06/17 05:54:18;;;;;;;11.35;9.00;;;;;;;26.69;49.33;100884.94;5023109;27;124083;-74
2021/06/17 05:56:46;;;;;;;11.73;9.43;;;;;;;26.72;49.19;100897.31;4993957;27;123866;-74
2021/06/17 05:59:13;;;;;;;11.90;8.65;;;;;;;26.75;49.07;100892.38;5003029;28;114163;-74
2021/06/17 06:01:40;;;;;;;13.20;8.93;;;;;;;26.80;48.71;100890.00;5016619;27;113919;-74
2021/06/17 06:04:07;;;;;;;11.88;8.93;;;;;;;26.88;49.02;100886.41;4992713;28;123996;-74
2021/06/17 06:06:34;;;;;;;12.00;8.63;;;;;;;26.98;49.22;100888.91;5015845;27;124226;-74
2021/06/17 06:09:02;;;;;;;14.50;9.07;;;;;;;27.09;48.83;100887.69;5014943;27;115795;-74
2021/06/17 06:11:30;;;;;;;12.30;9.27;;;;;;;27.19;49.38;100891.03;5007164;28;114080;-74
2021/06/17 06:13:57;;;;;;;9.55;8.15;;;;;;;27.30;48.91;100890.66;4975882;27;123220;-74
2021/06/17 06:16:24;;;;;;;9.50;7.63;;;;;;;27.39;48.37;100888.75;5018013;27;124262;-74
2021/06/17 06:18:51;;;;;;;10.38;7.53;;;;;;;27.49;48.48;100896.69;4997817;28;114539;-74
2021/06/17 06:21:18;;;;;;;9.10;7.68;;;;;;;27.62;48.02;100894.22;5017400;27;113663;-74
2021/06/17 06:23:45;;;;;;;12.88;7.68;;;;;;;27.73;47.71;100891.09;4995814;28;123996;-75
2021/06/17 06:26:13;;;;;;;10.20;7.28;;;;;;;27.88;47.16;100903.94;5002571;28;122846;-75
2021/06/17 06:28:40;;;;;;;12.02;7.70;;;;;;;28.01;47.24;100898.75;4991733;28;113799;-75
2021/06/17 06:31:07;;;;;;;9.07;6.28;;;;;;;28.15;46.62;100895.22;5001842;27;113600;-75
2021/06/17 06:33:34;;;;;;;9.30;6.72;;;;;;;28.31;46.55;100890.63;5017731;27;124411;-75
2021/06/17 06:36:01;;;;;;;7.90;6.97;;;;;;;28.48;46.17;100905.81;5017077;27;124260;-75
2021/06/17 06:38:28;;;;;;;9.02;6.28;;;;;;;28.66;46.10;100891.03;5019426;27;114650;-75
2021/06/17 06:40:55;;;;;;;8.55;6.10;;;;;;;28.85;46.35;100890.44;4997195;27;114397;-75
2021/06/17 06:43:22;;;;;;;8.07;5.55;;;;;;;29.03;45.18;100894.69;4989525;28;122622;-74
2021/06/17 06:45:49;;;;;;;7.60;5.30;;;;;;;29.18;44.49;100900.13;4995066;28;123613;-75
2021/06/17 06:48:18;;;;;;;7.00;5.15;;;;;;;29.33;44.79;100891.94;4995416;28;113062;-75
2021/06/17 06:50:47;;;;;;;7.00;5.30;;;;;;;29.49;44.60;100895.28;5028233;27;114283;-74
2021/06/17 06:53:14;;;;;;;6.30;5.25;;;;;;;29.64;44.09;100889.78;4998372;27;123044;-74
2021/06/17 06:55:41;;;;;;;6.55;5.00;;;;;;;29.75;43.04;100898.53;4984925;28;123356;-75
2021/06/17 06:58:11;;;;;;;5.68;3.83;;;;;;;29.82;42.63;100907.63;5018953;27;115168;-75
2021/06/17 07:00:43;;;;;;;7.15;4.55;;;;;;;29.85;42.60;100899.88;4997060;28;115363;-75
2021/06/17 07:03:11;;;;;;;7.03;4.80;;;;;;;29.89;42.22;100897.63;5017401;27;123460;-74
2021/06/17 07:05:39;;;;;;;7.95;5.30;;;;;;;29.90;42.06;100904.78;5001426;27;123833;-75
2021/06/17 07:08:10;;;;;;;5.80;5.03;;;;;;;29.91;41.83;100906.47;4998341;28;112871;-75
2021/06/17 07:10:40;;;;;;;6.07;5.00;;;;;;;29.92;41.61;100912.78;5000025;27;113274;-75
2021/06/17 07:13:07;;;;;;;6.35;4.80;;;;;;;29.93;41.80;100920.75;5024839;27;125575;-75
2021/06/17 07:15:34;;;;;;;5.90;4.85;;;;;;;29.92;41.76;100921.81;5006386;27;123269;-77
2021/06/17 07:18:02;;;;;;;6.05;4.30;;;;;;;29.93;41.91;100931.69;5022857;27;114311;-76
2021/06/17 07:20:29;;;;;;;5.75;4.60;;;;;;;29.95;41.91;100940.56;5022302;27;114992;-76
2021/06/17 07:22:56;;;;;;;7.00;4.30;;;;;;;30.02;42.00;100941.44;4999475;28;123929;-75
2021/06/17 07:25:24;;;;;;;4.80;3.90;;;;;;;30.15;41.79;100948.09;4999336;28;124029;-76
2021/06/17 07:27:52;;;;;;;6.40;4.57;;;;;;;30.28;41.83;100942.75;5021258;27;114317;-76
2021/06/17 07:30:21;;;;;;;6.10;4.57;;;;;;;30.43;41.40;100943.53;5000997;28;113113;-75
2021/06/17 07:32:48;;;;;;;5.53;4.35;;;;;;;30.58;41.43;100946.19;5020566;27;124110;-75
2021/06/17 07:35:16;;;;;;;5.20;3.85;;;;;;;30.73;41.00;100948.81;5011811;28;123306;-75
2021/06/17 07:37:43;;;;;;;4.45;3.90;;;;;;;30.90;40.44;100940.31;5005643;27;112968;-75
2021/06/17 07:40:13;;;;;;;5.10;3.80;;;;;;;31.03;40.36;100948.63;5009171;28;113564;-75
2021/06/17 07:42:40;;;;;;;6.15;3.60;;;;;;;31.14;40.36;100939.00;5010258;27;122620;-74
2021/06/17 07:45:08;;;;;;;6.95;3.78;;;;;;;31.26;39.97;100936.53;5028218;27;123677;-74
2021/06/17 07:47:37;;;;;;;4.72;3.45;;;;;;;31.37;39.54;100922.25;5002325;28;115240;-74
2021/06/17 07:50:07;;;;;;;4.22;3.22;;;;;;;31.50;39.48;100933.28;5021544;27;115163;-74
2021/06/17 07:52:34;;;;;;;5.03;3.05;;;;;;;31.65;38.94;100924.03;5012168;22;122119;-65
2021/06/17 07:55:03;;;;;;;4.90;3.00;;;;;;;31.74;38.78;100928.28;5024946;28;123868;-65
2021/06/17 07:57:31;;;;;;;3.72;2.70;;;;;;;31.79;38.52;100936.72;5018445;27;114544;-65
2021/06/17 07:59:58;;;;;;;3.55;2.80;;;;;;;31.83;37.78;100921.56;5022299;28;114237;-65
2021/06/17 08:02:26;;;;;;;3.95;2.85;;;;;;;31.87;38.08;100928.31;5022344;27;123787;-65
2021/06/17 08:04:53;;;;;;;3.92;3.00;;;;;;;31.93;37.82;100927.50;5023231;28;124650;-65
2021/06/17 08:07:20;;;;;;;4.10;2.97;;;;;;;32.01;38.23;100935.50;5000210;28;114897;-65
2021/06/17 08:09:48;;;;;;;6.28;2.97;;;;;;;32.12;38.00;100941.47;4998867;28;114101;-65
2021/06/17 08:12:15;;;;;;;5.60;3.00;;;;;;;32.21;38.27;100945.69;5000066;28;126016;-65
2021/06/17 08:14:42;;;;;;;5.22;2.90;;;;;;;32.33;38.33;100944.00;5009836;28;124024;-65
2021/06/17 08:17:09;;;;;;;4.38;2.95;;;;;;;32.41;38.16;100931.97;5023371;27;114861;-65
2021/06/17 08:19:36;;;;;;;4.32;2.50;;;;;;;32.49;37.32;100936.41;5021299;28;114045;-65
2021/06/17 08:22:06;;;;;;;4.30;2.45;;;;;;;32.51;37.26;100935.16;5008802;28;124338;-65
2021/06/17 08:24:36;;;;;;;4.40;2.80;;;;;;;32.54;37.26;100928.41;5009052;28;123110;-66
2021/06/17 08:27:04;;;;;;;3.25;2.50;;;;;;;32.58;37.30;100925.03;5006554;28;113264;-65
2021/06/17 08:29:32;;;;;;;4.18;2.58;;;;;;;32.63;37.47;100918.94;5015780;27;114125;-64
2021/06/17 08:32:00;;;;;;;4.30;2.70;;;;;;;32.70;37.41;100917.03;4992773;28;122983;-64
2021/06/17 08:34:28;;;;;;;2.95;2.60;;;;;;;32.83;37.29;100909.81;5003187;28;122813;-63
2021/06/17 08:36:55;;;;;;;4.38;2.53;;;;;;;32.93;36.93;100904.72;5018428;27;115196;-63
2021/06/17 08:39:23;;;;;;;3.90;2.70;;;;;;;33.02;36.89;100903.44;5016225;27;115026;-63
2021/06/17 08:41:51;;;;;;;5.25;2.60;;;;;;;33.13;36.93;100902.78;5025316;27;124231;-63
2021/06/17 08:44:18;;;;;;;4.68;2.70;;;;;;;33.26;37.24;100892.81;4998569;28;123834;-63
2021/06/17 08:46:45;;;;;;;4.20;2.58;;;;;;;33.36;37.36;100888.53;5021728;27;114618;-63
2021/06/17 08:49:15;;;;;;;4.10;2.63;;;;;;;33.48;36.50;100880.44;5023092;28;114236;-63
2021/06/17 08:51:42;;;;;;;3.42;2.60;;;;;;;33.59;35.91;100880.78;5022889;28;124319;-63
2021/06/17 08:54:10;;;;;;;3.85;2.60;;;;;;;33.65;35.55;100880.78;5021778;27;124022;-63
2021/06/17 08:56:37;;;;;;;3.55;2.70;;;;;;;33.70;34.87;100871.88;4998973;28;113725;-63
2021/06/17 08:59:06;;;;;;;3.83;2.60;;;;;;;33.76;34.46;100873.75;5009731;28;113153;-63
2021/06/17 09:01:34;;;;;;;2.92;2.40;;;;;;;33.80;35.17;100872.25;5018788;28;123317;-63
2021/06/17 09:04:18;;;;;;;3.75;2.55;;;;;;;33.88;34.86;100869.22;5020660;27;123972;-64
2021/06/17 09:07:09;;;;;;;4.38;2.50;;;;;;;33.96;34.81;100865.34;5020296;28;114284;-64
2021/06/17 09:09:43;;;;;;;5.38;2.75;;;;;;;34.01;35.13;100861.94;5028255;28;114382;-64
2021/06/17 09:12:15;;;;;;;2.97;2.20;;;;;;;34.05;35.26;100852.16;5022863;27;123125;-64
2021/06/17 09:15:03;;;;;;;3.58;2.40;;;;;;;34.14;35.35;100850.81;5019353;28;123913;-64
2021/06/17 09:17:30;;;;;;;3.05;2.00;;;;;;;34.24;35.60;100850.34;5005098;28;114531;-64
2021/06/17 09:19:57;;;;;;;3.08;2.65;;;;;;;34.36;35.37;100847.69;5026086;27;114230;-64
2021/06/17 09:22:26;;;;;;;6.30;2.45;;;;;;;34.45;34.32;100857.31;5017917;27;124257;-64
2021/06/17 09:24:55;;;;;;;4.45;2.85;;;;;;;34.51;33.52;100856.44;5012199;28;124626;-64
2021/06/17 09:27:26;;;;;;;4.43;2.70;;;;;;;34.53;33.67;100843.28;5016799;28;115982;-64
2021/06/17 09:29:57;;;;;;;4.35;2.45;;;;;;;34.56;33.35;100837.31;5001025;28;115244;-64
2021/06/17 09:32:27;;;;;;;4.13;3.22;;;;;;;34.58;33.30;100829.66;5016391;28;124337;-64
2021/06/17 09:34:55;;;;;;;3.83;2.42;;;;;;;34.60;33.73;100838.53;5007604;28;123524;-64
2021/06/17 09:37:44;;;;;;;4.55;2.72;;;;;;;34.65;32.92;100830.44;4992378;27;112986;-64
2021/06/17 09:40:50;;;;;;;3.97;3.05;;;;;;;34.63;33.06;100821.56;5003667;28;112963;-64
2021/06/17 09:43:28;;;;;;;2.90;2.28;;;;;;;34.67;32.98;100819.22;4998091;28;124647;-64
2021/06/17 09:45:59;;;;;;;3.42;2.58;;;;;;;34.69;32.76;100825.34;5028765;28;123842;-63
2021/06/17 09:48:29;;;;;;;3.67;2.67;;;;;;;34.73;32.80;100820.22;5011982;28;114061;-63
2021/06/17 09:50:56;;;;;;;5.40;2.90;;;;;;;34.80;33.09;100821.00;5012099;28;112079;-63
2021/06/17 09:53:27;;;;;;;4.05;2.83;;;;;;;34.86;33.36;100828.31;5028720;27;124328;-63
2021/06/17 09:55:55;;;;;;;4.90;2.83;;;;;;;34.92;32.33;100830.16;5018572;28;124306;-63
2021/06/17 09:58:39;;;;;;;4.13;2.75;;;;;;;34.92;32.31;100830.16;5018704;27;114534;-63
2021/06/17 10:01:12;;;;;;;3.88;2.70;;;;;;;34.94;32.83;100830.75;5018002;27;114592;-63
2021/06/17 10:03:41;;;;;;;4.18;2.75;;;;;;;35.00;32.89;100831.75;5028317;27;124330;-63
2021/06/17 10:06:21;;;;;;;3.45;2.70;;;;;;;35.03;32.08;100848.63;5014750;28;122878;-63
2021/06/17 10:08:48;;;;;;;3.88;2.58;;;;;;;35.06;32.33;100853.69;5034171;27;114225;-63
2021/06/17 10:11:16;;;;;;;3.60;2.70;;;;;;;35.12;32.32;100845.59;5027291;27;114602;-64
2021/06/17 10:13:44;;;;;;;4.60;2.80;;;;;;;35.20;32.28;100848.03;5031679;27;124099;-63
2021/06/17 10:16:17;;;;;;;3.88;3.17;;;;;;;35.27;32.23;100838.59;5014225;28;124721;-63
2021/06/17 10:18:47;;;;;;;3.75;2.80;;;;;;;35.38;32.28;100834.22;5032160;27;116187;-63
2021/06/17 10:21:17;;;;;;;5.97;3.05;;;;;;;35.51;32.27;100838.69;5026893;27;114950;-63
2021/06/17 10:23:47;;;;;;;4.53;3.15;;;;;;;35.62;31.93;100834.28;5026844;27;124090;-63
2021/06/17 10:26:16;;;;;;;3.80;3.20;;;;;;;35.69;32.24;100834.22;5013965;28;123748;-63
2021/06/17 10:28:47;;;;;;;4.45;3.38;;;;;;;35.76;31.78;100846.81;5011765;27;113135;-63
2021/06/17 10:31:39;;;;;;;5.20;3.03;;;;;;;35.77;32.30;100843.00;5033276;28;114304;-63
2021/06/17 10:34:25;;;;;;;5.60;3.30;;;;;;;35.85;32.08;100845.41;5013168;27;123029;-63
2021/06/17 10:37:10;;;;;;;4.47;3.30;;;;;;;35.92;31.79;100842.50;5015186;28;124691;-63
2021/06/17 10:39:42;;;;;;;4.28;3.30;;;;;;;35.92;31.93;100847.19;5026726;27;114610;-63
2021/06/17 10:42:16;;;;;;;6.13;4.07;;;;;;;35.89;31.36;100839.41;5034164;27;114605;-63
2021/06/17 10:44:44;;;;;;;4.65;3.22;;;;;;;35.84;31.86;100860.25;5008986;27;123426;-64
2021/06/17 10:47:47;;;;;;;4.25;3.63;;;;;;;35.84;31.76;100854.72;5005294;28;123209;-63
2021/06/17 10:50:20;;;;;;;5.15;3.47;;;;;;;35.91;31.43;100867.59;5023954;27;114376;-63
2021/06/17 10:52:52;;;;;;;4.38;3.03;;;;;;;35.96;31.78;100867.69;5020412;27;113729;-63
2021/06/17 10:55:21;;;;;;;5.70;3.30;;;;;;;36.04;31.26;100870.13;5006938;27;123843;-63
2021/06/17 10:57:53;;;;;;;3.95;3.53;;;;;;;36.09;31.94;100878.50;5012158;27;123086;-63
2021/06/17 11:02:55;;;;;;;3.67;2.95;;;;;;;36.13;31.18;100882.47;5021034;27;114560;-63
2021/06/17 11:05:31;;;;;;;3.83;2.80;;;;;;;36.12;31.39;100894.56;5007141;27;123055;-63
2021/06/17 11:08:14;;;;;;;5.97;3.10;;;;;;;36.13;31.77;100890.75;5023180;27;123997;-63
2021/06/17 11:10:50;;;;;;;4.35;3.28;;;;;;;36.16;31.46;100898.53;5018808;28;115306;-63
2021/06/17 11:13:35;;;;;;;6.05;3.30;;;;;;;36.17;31.92;100899.41;4986783;28;114774;-63
2021/06/17 11:16:26;;;;;;;5.03;3.20;;;;;;;36.19;31.97;100898.09;5024798;27;124145;-63
2021/06/17 11:19:14;;;;;;;5.03;2.90;;;;;;;36.22;31.64;100905.91;5020318;27;123345;-64
2021/06/17 11:21:43;;;;;;;5.40;2.90;;;;;;;36.30;31.78;100906.59;5009541;28;113097;-63
2021/06/17 11:24:10;;;;;;;4.07;2.60;;;;;;;36.35;31.99;100906.75;4994871;28;114105;-63
2021/06/17 11:26:44;;;;;;;4.05;2.80;;;;;;;36.41;31.78;100914.06;5025481;28;124041;-63
2021/06/17 11:29:36;;;;;;;4.43;2.80;;;;;;;36.43;31.97;100923.78;5017200;27;124104;-63
2021/06/17 11:32:23;;;;;;;3.63;2.47;;;;;;;36.43;31.64;100911.88;5032804;28;114210;-63